Laramie, WY

10:06 PM MDT on September 16, 2014 (GMT -0600)
Laramie Regional | Change Station
CLOSE
Current Station
Airport
Location: Laramie,
Elevation: 7270 ft
Nearby Weather Stations

Elev 7270 ft 41.32 °N, 105.67 °W | Updated 1 hour ago

Partly Cloudy
Partly Cloudy
58 °F
Feels Like 58 °F
N
7
Wind Variable Wind from WSW

Today
High -- | Low -- °F
--% Chance of Precip.
Yesterday
High -- | Low -- °F
Precip. -- in
6:43 AM 7:09 PM
Last Quarter, 39% visible
Pressure 29.93 in
Visibility 10.0 miles
Clouds Few 12000 ft
Dew Point 33 °F
Humidity 39%
Rainfall 0.00 in
Snow Depth 0 in , 0 in , 0 in
UV 0 out of 12
Pollen 7.30 out of 12
Air Quality Not available.
Flu Activity Not available.
METAR KLAR 170253Z AUTO 25006KT 10SM FEW120 14/01 A3023 RMK AO2 SLP134 T01440006 53003

More Conditions Fewer Conditions

Pressure 29.93 in
Visibility 10.0 miles
Clouds Few 12000 ft
Dew Point 33 °F
Humidity 39%
Rainfall 0.00 in
Snow Depth 0 in , 0 in , 0 in
UV 0 out of 12
Pollen 7.30 out of 12
Air Quality Not available.
Flu Activity Not available.
METAR KLAR 170253Z AUTO 25006KT 10SM FEW120 14/01 A3023 RMK AO2 SLP134 T01440006 53003

More Conditions Fewer Conditions

10-Day Weather Forecast

Almanac

Astronomy

Sep. 16, 2014 Rise Set
Actual Time 6:43 AM MDT 7:09 PM MDT
Civil Twilight 6:16 AM MDT 7:37 PM MDT
Nautical Twilight 5:43 AM MDT 8:09 PM MDT
Astronomical Twilight 5:09 AM MDT 8:43 PM MDT
Moon No Moon Rise 2:38 PM MDT (9/16)
Length of Visible Light 13h 21m
Length of Day
12h 25m
Tomorrow will be 2m 43s shorter.
Last Quarter, 39% of the Moon is Illuminated
Sep 17
Last Quarter
Sep 24
New
Oct 1
First Quarter
Oct 8
Full
Oct 15
Last Quarter

Today's Extremes

State Highs State Lows

Community

WunderPhotos

Upload Photos

1,753,965 photos uploaded!

Nearby

Snow Depth

Station Depth Elevation
Phillips Bench 0 in 8200 ft
Salt River Summit 0 in 7600 ft
Cold Springs 0 in 9630 ft
Parker Peak 0 in 9400 ft
Powder River Pass 0 in 9480 ft

Earthquake Activity

City Distance Mag. Time & Date
No recent earthquake activity has been reported nearby.
Minimum magnitude displayed is 2.5.

Coastal Water Temperatures

Place Temperature
No Stations Reporting

Nearby Weather Stations